Meteo Giornale » Osservazioni meteo Gran Bretagna » Leconfield

ore: 13:50 - Osservazioni Meteo Leconfield
Lat. 53° 52' N Lon. 0° 26' W Alt. 6 metri s.l.m.

molto_nuvoloso Europe/London

17 °C

Molto Nuvoloso

Temp. 24 Ore

10 °C

17 °C

Sud

18.5 Km/h

Dew point 9 °C

Umidità 59 %

Visibilità  10 Km

Il sole sorge alle ore 06:57

Il sole tramonta alle ore 18:47

Data e Ora Cielo e Fenomeni T °C DP °C Um. % Pres. hPa Vis. km Vento km/h
Oggi h: 13:50 molto_nuvoloso Molto Nuvoloso 17 9 59 1011 10 S 18.5
Oggi h: 12:50 poco_nuvoloso Poco Nuvoloso 16 10 67 1012 10 S 16.7
Oggi h: 11:50 nuvoloso Nuvoloso 16 11 72 1013 10 S 18.5
Oggi h: 10:50 poco_nuvoloso Poco Nuvoloso 14 10 76 1013 10 S 16.7
Oggi h: 08:50 sereno Sereno 11 9 87 1014 10 S 13
Oggi h: 07:50 sereno Sereno 10 8 87 1014 10 S 13
Oggi h: 06:50 sereno Sereno 10 8 87 1014 10 S/SO 18.5
Oggi h: 05:50 poco_nuvoloso Poco Nuvoloso 10 8 87 1014 10 S/SO 18.5
Oggi h: 04:50 sereno Sereno 10 8 87 1014 10 S/SO 13
Oggi h: 03:50 sereno Sereno 10 8 87 1014 10 S/SO 14.8
Oggi h: 02:50 sereno Sereno 10 7 81 1014 10 S/SO 13
Oggi h: 01:50 sereno Sereno 10 7 81 1014 10 S 13
Oggi h: 00:50 sereno Sereno 11 7 76 1014 10 S 14.8
Ieri h: 23:50 sereno Sereno 11 7 76 1013 10 S/SO 14.8
Ieri h: 22:50 sereno Sereno 11 7 76 1013 10 S 14.8
Ieri h: 20:50 sereno Sereno 12 7 71 1012 10 S/SO 13
Ieri h: 19:50 sereno Sereno 12 7 71 1011 10 S/SO 7.4
Ieri h: 18:50 sereno Sereno 14 8 67 1010 10 SO 13
Ieri h: 16:50 poco_nuvoloso Poco Nuvoloso 16 8 58 1008 10 SO 22.2
Ieri h: 14:50 sereno Sereno 16 9 63 1006 10 O/SO 31.5